createdAt,value
2018-12-16T00:02:21.360Z,12.65
2018-12-16T00:04:50.885Z,12.25
2018-12-16T00:07:20.524Z,11.48
2018-12-16T00:09:49.613Z,12.73
2018-12-16T00:12:19.629Z,13.50
2018-12-16T00:14:48.942Z,12.75
2018-12-16T00:17:18.122Z,12.07
2018-12-16T00:19:47.117Z,12.68
2018-12-16T00:22:15.891Z,12.37
2018-12-16T00:24:45.236Z,13.88
2018-12-16T00:27:14.615Z,13.90
2018-12-16T00:29:44.257Z,12.65
2018-12-16T00:32:13.023Z,13.28
2018-12-16T00:34:42.409Z,12.00
2018-12-16T00:37:10.992Z,12.15
2018-12-16T00:39:43.716Z,14.68
2018-12-16T00:42:13.014Z,12.47
2018-12-16T00:44:42.478Z,13.08
2018-12-16T00:47:12.324Z,12.45
2018-12-16T00:49:41.805Z,13.13
2018-12-16T00:52:11.019Z,12.35
2018-12-16T00:54:39.854Z,13.10
2018-12-16T00:57:08.601Z,12.80
2018-12-16T00:59:37.341Z,13.08
2018-12-16T01:02:08.776Z,12.88
2018-12-16T01:04:37.949Z,13.53
2018-12-16T01:07:06.908Z,12.45
2018-12-16T01:09:35.791Z,13.08
2018-12-16T01:12:05.335Z,13.95
2018-12-16T01:14:35.861Z,13.25
2018-12-16T01:17:04.786Z,13.90
2018-12-16T01:19:33.592Z,12.40
2018-12-16T01:22:03.373Z,14.50
2018-12-16T01:24:32.698Z,13.40
2018-12-16T01:27:01.696Z,14.53
2018-12-16T01:29:30.347Z,13.62
2018-12-16T01:31:59.672Z,14.63
2018-12-16T01:34:28.422Z,12.82
2018-12-16T01:36:57.784Z,14.10
2018-12-16T01:39:26.525Z,13.13
2018-12-16T01:41:56.055Z,13.20
2018-12-16T01:44:25.525Z,13.80
2018-12-16T01:46:55.003Z,13.05
2018-12-16T01:49:23.879Z,13.88
2018-12-16T01:51:52.709Z,13.60
2018-12-16T01:54:21.769Z,15.20
2018-12-16T01:56:51.339Z,13.15
2018-12-16T01:59:20.039Z,15.00
2018-12-16T02:01:55.227Z,14.65
2018-12-16T02:04:24.610Z,13.28
2018-12-16T02:06:53.768Z,14.47
2018-12-16T02:09:23.269Z,14.95
2018-12-16T02:11:52.297Z,14.25
2018-12-16T02:14:20.918Z,14.23
2018-12-16T02:16:50.437Z,15.25
2018-12-16T02:19:19.456Z,13.75
2018-12-16T02:21:48.760Z,13.70
2018-12-16T02:24:17.951Z,14.30
2018-12-16T02:26:47.799Z,14.25
2018-12-16T02:29:16.887Z,15.83
2018-12-16T02:31:45.959Z,14.05
2018-12-16T02:34:15.340Z,15.55
2018-12-16T02:36:44.604Z,15.23
2018-12-16T02:39:13.947Z,15.68
2018-12-16T02:41:42.820Z,15.63
2018-12-16T02:44:12.446Z,16.32
2018-12-16T02:46:41.903Z,15.63
2018-12-16T02:49:10.969Z,16.70
2018-12-16T02:51:41.047Z,16.48
2018-12-16T02:54:09.964Z,16.97
2018-12-16T02:56:39.591Z,16.93
2018-12-16T02:59:08.404Z,17.42
2018-12-16T03:01:39.544Z,19.45
2018-12-16T03:04:08.885Z,19.15
2018-12-16T03:06:38.121Z,18.87
2018-12-16T03:09:07.346Z,18.40
2018-12-16T03:11:36.517Z,18.50
2018-12-16T03:14:05.437Z,19.32
2018-12-16T03:16:34.638Z,20.72
2018-12-16T03:19:04.235Z,20.62
2018-12-16T03:21:33.686Z,23.22
2018-12-16T03:24:02.604Z,19.27
2018-12-16T03:26:35.846Z,21.02
2018-12-16T03:29:02.354Z,23.50
2018-12-16T03:31:31.895Z,20.02
2018-12-16T03:34:00.952Z,21.15
2018-12-16T03:36:30.132Z,20.45
2018-12-16T03:38:58.726Z,22.02
2018-12-16T03:41:27.996Z,21.87
2018-12-16T03:43:57.673Z,21.45
2018-12-16T03:46:26.546Z,20.75
2018-12-16T03:48:55.432Z,20.75
2018-12-16T03:51:24.315Z,20.08
2018-12-16T03:53:54.072Z,22.20
2018-12-16T03:56:23.056Z,21.68
2018-12-16T03:59:03.746Z,19.95
2018-12-16T04:01:33.273Z,21.55
2018-12-16T04:04:02.686Z,20.27
2018-12-16T04:06:31.269Z,21.87
2018-12-16T04:09:00.898Z,21.70
2018-12-16T04:11:30.747Z,21.95
2018-12-16T04:13:59.592Z,21.33
2018-12-16T04:16:28.458Z,19.95
2018-12-16T04:18:57.235Z,21.48
2018-12-16T04:21:26.591Z,22.13
2018-12-16T04:23:55.333Z,22.05
2018-12-16T04:26:24.753Z,20.32
2018-12-16T04:28:53.371Z,21.77
2018-12-16T04:31:21.981Z,21.17
2018-12-16T04:33:50.911Z,20.62
2018-12-16T04:36:19.800Z,23.25
2018-12-16T04:38:48.923Z,21.15
2018-12-16T04:41:18.390Z,22.55
2018-12-16T04:43:47.771Z,19.95
2018-12-16T04:46:17.505Z,20.88
2018-12-16T04:48:47.240Z,21.97
2018-12-16T04:51:15.934Z,21.62
2018-12-16T04:53:45.108Z,23.10
2018-12-16T04:56:13.816Z,21.80
2018-12-16T04:58:43.170Z,22.80
2018-12-16T05:01:11.950Z,21.37
2018-12-16T05:03:41.002Z,21.48
2018-12-16T05:06:09.978Z,20.37
2018-12-16T05:08:39.618Z,21.85
2018-12-16T05:11:09.106Z,21.33
2018-12-16T05:13:37.831Z,21.65
2018-12-16T05:16:07.282Z,20.30
2018-12-16T05:18:36.103Z,20.40
2018-12-16T05:21:05.001Z,21.07
2018-12-16T05:23:34.192Z,19.40
2018-12-16T05:26:02.891Z,21.57
2018-12-16T05:28:31.974Z,19.50
2018-12-16T05:31:01.461Z,20.57
2018-12-16T05:33:30.474Z,19.23
2018-12-16T05:36:00.025Z,20.62
2018-12-16T05:38:29.035Z,20.55
2018-12-16T05:40:58.649Z,20.23
2018-12-16T05:43:28.133Z,23.07
2018-12-16T05:45:57.206Z,18.45
2018-12-16T05:48:25.869Z,20.77
2018-12-16T05:50:54.634Z,21.07
2018-12-16T05:53:23.723Z,20.48
2018-12-16T05:55:52.855Z,21.00
2018-12-16T05:58:22.384Z,19.37
2018-12-16T06:00:51.929Z,19.70
2018-12-16T06:03:21.466Z,20.15
2018-12-16T06:05:51.332Z,18.62
2018-12-16T06:08:20.553Z,19.05
2018-12-16T06:10:49.127Z,18.65
2018-12-16T06:13:18.133Z,18.20
2018-12-16T06:15:47.111Z,19.77
2018-12-16T06:18:16.896Z,19.15
2018-12-16T06:20:46.395Z,18.35
2018-12-16T06:23:15.812Z,18.12
2018-12-16T06:25:45.445Z,18.20
2018-12-16T06:28:14.413Z,17.52
2018-12-16T06:30:44.598Z,18.07
2018-12-16T06:33:14.162Z,18.65
2018-12-16T06:35:43.605Z,16.55
2018-12-16T06:38:13.430Z,16.52
2018-12-16T06:40:42.316Z,18.65
2018-12-16T06:43:11.294Z,17.25
2018-12-16T06:45:40.748Z,17.95
2018-12-16T06:48:09.625Z,17.70
2018-12-16T06:50:38.924Z,18.07
2018-12-16T06:53:07.694Z,18.05
2018-12-16T06:55:43.120Z,17.50
2018-12-16T06:58:07.306Z,19.02
2018-12-16T07:00:36.106Z,17.82
2018-12-16T07:03:04.980Z,18.45
2018-12-16T07:05:33.617Z,18.25
2018-12-16T07:08:03.085Z,18.37
2018-12-16T07:10:32.454Z,19.37
2018-12-16T07:13:02.260Z,18.02
2018-12-16T07:15:31.635Z,18.48
2018-12-16T07:18:01.109Z,19.45
2018-12-16T07:20:30.731Z,19.85
2018-12-16T07:23:00.141Z,18.90
2018-12-16T07:25:28.878Z,17.92
2018-12-16T07:27:57.636Z,17.80
2018-12-16T07:30:27.916Z,18.82
2018-12-16T07:32:57.623Z,17.50
2018-12-16T07:35:26.918Z,17.75
2018-12-16T07:37:55.700Z,19.48
2018-12-16T07:40:25.022Z,18.98
2018-12-16T07:42:54.695Z,18.45
2018-12-16T07:45:24.142Z,20.72
2018-12-16T07:47:52.811Z,20.95
2018-12-16T07:50:22.358Z,19.62
2018-12-16T07:52:51.789Z,20.27
2018-12-16T07:55:21.293Z,19.12
2018-12-16T07:57:50.994Z,19.12
2018-12-16T08:00:19.824Z,19.15
2018-12-16T08:02:49.081Z,21.50
2018-12-16T08:05:18.147Z,19.25
2018-12-16T08:07:47.174Z,19.92
2018-12-16T08:10:15.958Z,20.30
2018-12-16T08:12:46.272Z,19.65
2018-12-16T08:15:15.412Z,20.75
2018-12-16T08:17:44.205Z,19.87
2018-12-16T08:20:13.927Z,21.57
2018-12-16T08:22:43.219Z,20.52
2018-12-16T08:25:12.718Z,22.93
2018-12-16T08:27:42.426Z,20.32
2018-12-16T08:30:11.975Z,19.87
2018-12-16T08:32:40.752Z,20.20
2018-12-16T08:35:10.093Z,21.10
2018-12-16T08:37:38.968Z,20.27
2018-12-16T08:40:08.139Z,20.68
2018-12-16T08:42:37.502Z,22.80
2018-12-16T08:45:08.235Z,20.20
2018-12-16T08:47:37.728Z,21.68
2018-12-16T08:50:07.469Z,20.75
2018-12-16T08:52:36.825Z,23.62
2018-12-16T08:55:06.483Z,21.35
2018-12-16T08:57:35.398Z,22.50
2018-12-16T09:00:04.973Z,23.42
2018-12-16T09:02:34.013Z,21.77
2018-12-16T09:05:03.262Z,22.22
2018-12-16T09:07:37.213Z,23.22
2018-12-16T09:10:04.515Z,22.85
2018-12-16T09:12:34.922Z,22.82
2018-12-16T09:15:04.285Z,22.05
2018-12-16T09:17:33.764Z,23.65
2018-12-16T09:20:03.308Z,22.93
2018-12-16T09:22:32.748Z,26.62
2018-12-16T09:25:02.322Z,23.20
2018-12-16T09:27:31.949Z,21.02
2018-12-16T09:30:00.757Z,20.32
2018-12-16T09:32:30.095Z,20.77
2018-12-16T09:35:00.037Z,21.62
2018-12-16T09:37:29.494Z,22.65
2018-12-16T09:39:58.416Z,20.50
2018-12-16T09:42:27.924Z,21.75
2018-12-16T09:44:57.479Z,19.10
2018-12-16T09:47:26.829Z,18.92
2018-12-16T09:49:55.817Z,20.32
2018-12-16T09:52:25.309Z,22.93
2018-12-16T09:54:54.046Z,20.05
2018-12-16T09:57:23.004Z,21.48
2018-12-16T09:59:52.920Z,22.07
2018-12-16T10:02:22.419Z,19.90
2018-12-16T10:04:51.778Z,21.45
2018-12-16T10:07:21.473Z,22.35
2018-12-16T10:09:50.081Z,23.18
2018-12-16T10:12:18.795Z,21.95
2018-12-16T10:14:47.683Z,22.07
2018-12-16T10:17:16.675Z,22.73
2018-12-16T10:19:45.395Z,20.48
2018-12-16T10:22:15.935Z,20.25
2018-12-16T10:24:51.030Z,21.97
2018-12-16T10:27:16.187Z,21.02
2018-12-16T10:29:45.720Z,18.48
2018-12-16T10:32:14.499Z,19.23
2018-12-16T10:34:43.538Z,19.30
2018-12-16T10:37:13.003Z,17.92
2018-12-16T10:39:43.035Z,17.48
2018-12-16T10:42:12.550Z,18.55
2018-12-16T10:44:42.852Z,17.20
2018-12-16T10:47:11.572Z,17.05
2018-12-16T10:49:40.770Z,17.77
2018-12-16T10:52:10.601Z,18.90
2018-12-16T10:54:40.025Z,19.10
2018-12-16T10:57:08.669Z,19.27
2018-12-16T10:59:37.858Z,17.85
2018-12-16T11:02:07.589Z,16.90
2018-12-16T11:04:36.503Z,16.35
2018-12-16T11:07:05.973Z,15.58
2018-12-16T11:09:35.334Z,14.95
2018-12-16T11:12:04.977Z,14.38
2018-12-16T11:14:33.993Z,14.53
2018-12-16T11:17:03.032Z,15.18
2018-12-16T11:19:32.651Z,15.10
2018-12-16T11:22:01.553Z,15.05
2018-12-16T11:24:30.550Z,15.58
2018-12-16T11:27:00.671Z,15.38
2018-12-16T11:29:29.589Z,14.93
2018-12-16T11:31:58.447Z,13.83
2018-12-16T11:34:27.329Z,15.08
2018-12-16T11:36:56.236Z,13.58
2018-12-16T11:39:25.250Z,12.78
2018-12-16T11:41:54.245Z,13.40
2018-12-16T11:44:23.683Z,13.18
2018-12-16T11:46:53.156Z,12.90
2018-12-16T11:49:22.938Z,12.50
2018-12-16T11:51:52.582Z,12.10
2018-12-16T11:54:21.782Z,11.90
2018-12-16T11:56:50.633Z,12.15
2018-12-16T11:59:19.493Z,12.50
2018-12-16T12:01:48.613Z,9.73
2018-12-16T12:04:17.508Z,12.18
2018-12-16T12:06:46.211Z,11.63
2018-12-16T12:09:15.106Z,12.33
2018-12-16T12:11:43.744Z,11.55
2018-12-16T12:14:13.081Z,10.68
2018-12-16T12:16:41.960Z,10.43
2018-12-16T12:19:10.576Z,9.80
2018-12-16T12:21:39.879Z,7.55
2018-12-16T12:24:09.460Z,8.55
2018-12-16T12:26:38.851Z,8.00
2018-12-16T12:29:07.785Z,8.95
2018-12-16T12:31:36.542Z,7.83
2018-12-16T12:34:05.536Z,8.48
2018-12-16T12:36:34.993Z,8.60
2018-12-16T12:39:04.737Z,9.38
2018-12-16T12:41:34.089Z,9.25
2018-12-16T12:44:03.649Z,8.95
2018-12-16T12:46:33.260Z,8.45
2018-12-16T12:49:02.727Z,8.98
2018-12-16T12:51:32.374Z,8.98
2018-12-16T12:54:01.058Z,7.95
2018-12-16T12:56:30.352Z,9.05
2018-12-16T12:58:59.851Z,8.43
2018-12-16T13:01:28.524Z,7.92
2018-12-16T13:03:57.683Z,7.33
2018-12-16T13:06:26.568Z,7.65
2018-12-16T13:08:55.204Z,7.30
2018-12-16T13:11:24.889Z,7.10
2018-12-16T13:13:54.081Z,7.65
2018-12-16T13:16:23.857Z,7.50
2018-12-16T13:18:52.872Z,8.35
2018-12-16T13:21:21.932Z,7.55
2018-12-16T13:23:50.630Z,8.08
2018-12-16T13:26:19.919Z,7.80
2018-12-16T13:28:49.424Z,7.33
2018-12-16T13:31:19.196Z,7.53
2018-12-16T13:33:47.791Z,7.53
2018-12-16T13:36:16.598Z,7.12
2018-12-16T13:38:45.574Z,6.85
2018-12-16T13:41:14.335Z,8.78
2018-12-16T13:43:49.959Z,11.70
2018-12-16T13:46:19.310Z,9.45
2018-12-16T13:48:49.071Z,7.62
2018-12-16T13:51:18.428Z,8.13
2018-12-16T13:53:47.635Z,7.58
2018-12-16T13:56:17.051Z,7.85
2018-12-16T13:58:45.884Z,9.83
2018-12-16T14:01:14.568Z,9.78
2018-12-16T14:03:44.182Z,10.80
2018-12-16T14:06:13.261Z,9.73
2018-12-16T14:08:42.157Z,8.98
2018-12-16T14:11:10.863Z,12.40
2018-12-16T14:13:40.278Z,11.60
2018-12-16T14:16:09.827Z,11.38
2018-12-16T14:18:38.600Z,10.63
2018-12-16T14:21:07.619Z,9.08
2018-12-16T14:23:36.525Z,9.93
2018-12-16T14:26:05.271Z,9.90
2018-12-16T14:28:34.288Z,8.28
2018-12-16T14:31:03.362Z,8.95
2018-12-16T14:33:32.827Z,8.65
2018-12-16T14:36:02.432Z,7.53
2018-12-16T14:38:32.004Z,8.00
2018-12-16T14:41:01.036Z,8.48
2018-12-16T14:43:29.976Z,7.72
2018-12-16T14:45:59.699Z,8.33
2018-12-16T14:48:29.692Z,8.33
2018-12-16T14:50:58.542Z,9.30
2018-12-16T14:53:27.251Z,10.28
2018-12-16T14:55:56.374Z,10.60
2018-12-16T14:58:25.391Z,10.68
2018-12-16T15:00:54.953Z,11.57
2018-12-16T15:03:23.972Z,11.60
2018-12-16T15:05:52.867Z,10.38
2018-12-16T15:08:22.564Z,10.35
2018-12-16T15:10:51.931Z,10.23
2018-12-16T15:13:21.626Z,9.33
2018-12-16T15:15:50.417Z,9.63
2018-12-16T15:18:19.600Z,10.30
2018-12-16T15:20:48.803Z,10.23
2018-12-16T15:23:19.131Z,8.65
2018-12-16T15:25:48.015Z,8.70
2018-12-16T15:28:17.894Z,8.78
2018-12-16T15:30:47.955Z,9.63
2018-12-16T15:33:17.025Z,9.25
2018-12-16T15:35:46.345Z,9.58
2018-12-16T15:38:15.672Z,11.20
2018-12-16T15:40:45.639Z,9.73
2018-12-16T15:43:15.247Z,9.18
2018-12-16T15:45:44.491Z,10.00
2018-12-16T15:48:13.729Z,9.48
2018-12-16T15:50:42.660Z,9.73
2018-12-16T15:53:11.315Z,10.13
2018-12-16T15:55:40.377Z,10.45
2018-12-16T15:58:09.540Z,10.38
2018-12-16T16:00:38.863Z,11.25
2018-12-16T16:03:08.131Z,12.60
2018-12-16T16:05:36.936Z,13.18
2018-12-16T16:08:07.219Z,12.82
2018-12-16T16:10:36.140Z,13.15
2018-12-16T16:13:05.650Z,12.63
2018-12-16T16:15:35.262Z,12.55
2018-12-16T16:18:05.515Z,12.03
2018-12-16T16:20:34.450Z,13.65
2018-12-16T16:23:04.065Z,12.63
2018-12-16T16:25:32.881Z,12.58
2018-12-16T16:28:02.059Z,12.93
2018-12-16T16:30:31.551Z,11.75
2018-12-16T16:33:01.062Z,11.75
2018-12-16T16:35:29.695Z,12.47
2018-12-16T16:38:00.752Z,13.60
2018-12-16T16:40:30.670Z,12.98
2018-12-16T16:42:59.493Z,12.30
2018-12-16T16:45:28.877Z,15.10
2018-12-16T16:47:58.408Z,14.15
2018-12-16T16:50:28.027Z,15.08
2018-12-16T16:52:56.790Z,14.45
2018-12-16T16:55:25.958Z,14.07
2018-12-16T16:57:55.584Z,14.90
2018-12-16T17:00:25.323Z,14.50
2018-12-16T17:02:54.429Z,13.93
2018-12-16T17:05:23.023Z,15.23
2018-12-16T17:07:52.415Z,13.70
2018-12-16T17:10:21.382Z,13.00
2018-12-16T17:12:50.964Z,13.55
2018-12-16T17:15:20.067Z,13.32
2018-12-16T17:17:48.877Z,13.05
2018-12-16T17:20:18.382Z,14.55
2018-12-16T17:22:48.171Z,14.15
2018-12-16T17:25:17.698Z,14.07
2018-12-16T17:27:46.700Z,13.78
2018-12-16T17:30:15.697Z,13.78
2018-12-16T17:32:45.411Z,14.10
2018-12-16T17:35:14.666Z,13.65
2018-12-16T17:37:44.413Z,13.80
2018-12-16T17:40:13.259Z,12.80
2018-12-16T17:42:42.302Z,13.20
2018-12-16T17:45:12.033Z,11.60
2018-12-16T17:47:41.779Z,12.82
2018-12-16T17:50:12.235Z,13.68
2018-12-16T17:52:40.970Z,15.35
2018-12-16T17:55:10.104Z,14.50
2018-12-16T17:57:38.991Z,14.93
2018-12-16T18:00:10.484Z,14.65
2018-12-16T18:02:39.356Z,14.55
2018-12-16T18:05:08.297Z,14.55
2018-12-16T18:07:37.271Z,14.38
2018-12-16T18:10:06.714Z,14.20
2018-12-16T18:12:35.582Z,14.75
2018-12-16T18:15:05.623Z,13.08
2018-12-16T18:17:34.448Z,13.88
2018-12-16T18:20:03.498Z,14.18
2018-12-16T18:22:32.263Z,13.90
2018-12-16T18:25:01.844Z,12.13
2018-12-16T18:27:30.532Z,14.00
2018-12-16T18:30:00.002Z,12.75
2018-12-16T18:32:29.283Z,14.13
2018-12-16T18:34:58.452Z,14.75
2018-12-16T18:37:27.584Z,16.42
2018-12-16T18:39:56.305Z,22.40
2018-12-16T18:42:25.319Z,22.35
2018-12-16T18:44:54.149Z,18.50
2018-12-16T18:47:23.724Z,16.02
2018-12-16T18:49:52.959Z,16.30
2018-12-16T18:52:22.807Z,16.07
2018-12-16T18:54:52.404Z,16.37
2018-12-16T18:57:22.156Z,15.32
2018-12-16T18:59:51.032Z,14.95
2018-12-16T19:02:20.246Z,14.87
2018-12-16T19:04:49.118Z,13.55
2018-12-16T19:07:17.845Z,14.47
2018-12-16T19:09:46.608Z,13.48
2018-12-16T19:12:16.193Z,26.37
2018-12-16T19:14:46.138Z,36.48
2018-12-16T19:17:15.380Z,33.75
2018-12-16T19:19:44.917Z,18.60
2018-12-16T19:22:13.704Z,18.30
2018-12-16T19:24:42.517Z,18.87
2018-12-16T19:27:11.269Z,17.42
2018-12-16T19:29:41.043Z,19.92
2018-12-16T19:32:10.003Z,19.15
2018-12-16T19:34:39.126Z,17.60
2018-12-16T19:37:08.709Z,17.25
2018-12-16T19:39:38.311Z,16.00
2018-12-16T19:42:07.017Z,16.37
2018-12-16T19:44:36.154Z,15.83
2018-12-16T19:47:05.817Z,14.87
2018-12-16T19:49:35.440Z,14.87
2018-12-16T19:52:04.406Z,15.15
2018-12-16T19:54:33.527Z,14.58
2018-12-16T19:57:05.209Z,15.58
2018-12-16T19:59:34.122Z,15.10
2018-12-16T20:02:03.091Z,15.60
2018-12-16T20:04:37.345Z,14.25
2018-12-16T20:07:06.933Z,13.22
2018-12-16T20:09:36.482Z,14.55
2018-12-16T20:12:05.999Z,18.20
2018-12-16T20:14:34.655Z,18.12
2018-12-16T20:17:03.728Z,19.12
2018-12-16T20:19:32.520Z,18.92
2018-12-16T20:22:02.113Z,17.17
2018-12-16T20:24:31.317Z,16.93
2018-12-16T20:27:00.293Z,17.17
2018-12-16T20:29:29.843Z,14.85
2018-12-16T20:31:58.747Z,16.77
2018-12-16T20:34:27.728Z,16.15
2018-12-16T20:36:56.505Z,18.77
2018-12-16T20:39:25.155Z,18.35
2018-12-16T20:41:54.753Z,19.82
2018-12-16T20:44:23.412Z,18.95
2018-12-16T20:46:52.520Z,16.52
2018-12-16T20:49:21.248Z,17.12
2018-12-16T20:51:50.897Z,16.75
2018-12-16T20:54:20.476Z,16.30
2018-12-16T20:56:50.116Z,18.10
2018-12-16T20:59:20.702Z,16.75
2018-12-16T21:01:50.196Z,17.98
2018-12-16T21:04:19.820Z,17.02
2018-12-16T21:06:48.729Z,15.38
2018-12-16T21:09:17.868Z,16.32
2018-12-16T21:11:51.761Z,17.12
2018-12-16T21:14:26.369Z,16.30
2018-12-16T21:17:00.401Z,16.00
2018-12-16T21:19:29.740Z,14.95
2018-12-16T21:21:58.977Z,15.93
2018-12-16T21:24:27.668Z,15.40
2018-12-16T21:26:57.499Z,15.58
2018-12-16T21:29:26.961Z,17.40
2018-12-16T21:31:56.260Z,17.25
2018-12-16T21:34:25.724Z,19.75
2018-12-16T21:36:54.389Z,18.10
2018-12-16T21:39:23.894Z,17.40
2018-12-16T21:41:55.401Z,17.57
2018-12-16T21:44:24.282Z,18.95
2018-12-16T21:46:53.467Z,16.70
2018-12-16T21:49:23.014Z,16.90
2018-12-16T21:51:51.655Z,16.67
2018-12-16T21:54:20.807Z,15.78
2018-12-16T21:56:49.838Z,16.15
2018-12-16T21:59:19.392Z,16.48
2018-12-16T22:01:48.780Z,15.85
2018-12-16T22:04:18.387Z,16.70
2018-12-16T22:06:48.173Z,15.88
2018-12-16T22:09:17.133Z,17.27
2018-12-16T22:11:45.921Z,16.95
2018-12-16T22:14:14.767Z,15.60
2018-12-16T22:16:43.779Z,16.07
2018-12-16T22:19:12.606Z,16.73
2018-12-16T22:21:41.358Z,16.25
2018-12-16T22:24:10.784Z,16.17
2018-12-16T22:26:39.949Z,14.75
2018-12-16T22:29:08.970Z,14.87
2018-12-16T22:31:38.606Z,15.20
2018-12-16T22:34:08.110Z,14.33
2018-12-16T22:36:37.757Z,14.33
2018-12-16T22:39:08.024Z,14.25
2018-12-16T22:41:37.011Z,13.15
2018-12-16T22:44:06.214Z,12.73
2018-12-16T22:46:35.385Z,12.80
2018-12-16T22:49:04.209Z,12.88
2018-12-16T22:51:33.592Z,12.45
2018-12-16T22:54:02.374Z,12.82
2018-12-16T22:56:33.006Z,12.15
2018-12-16T22:59:02.451Z,12.75
2018-12-16T23:01:31.269Z,11.78
2018-12-16T23:04:00.586Z,12.43
2018-12-16T23:06:29.580Z,11.70
2018-12-16T23:08:59.289Z,11.33
2018-12-16T23:11:29.099Z,11.30
2018-12-16T23:13:58.359Z,11.25
2018-12-16T23:16:27.277Z,12.33
2018-12-16T23:18:56.243Z,11.00
2018-12-16T23:21:26.394Z,11.28
2018-12-16T23:23:55.051Z,10.23
2018-12-16T23:26:23.827Z,11.45
2018-12-16T23:28:53.066Z,11.15
2018-12-16T23:31:22.526Z,10.08
2018-12-16T23:33:51.443Z,9.98
2018-12-16T23:36:20.756Z,10.50
2018-12-16T23:38:49.600Z,11.28
2018-12-16T23:41:18.717Z,9.98
2018-12-16T23:43:48.039Z,8.65
2018-12-16T23:46:17.056Z,8.60
2018-12-16T23:48:46.619Z,9.18
2018-12-16T23:51:15.757Z,10.00
2018-12-16T23:53:45.153Z,9.63
2018-12-16T23:56:14.188Z,8.93
2018-12-16T23:58:43.177Z,8.95
